sensor_id;sensor_type;location;lat;lon;timestamp;pressure;altitude;pressure_sealevel;temperature;humidity
69257;BME280;56376;53.356;-1.748;2023-07-09T00:01:54;99561.44;;;18.13;100.00
69257;BME280;56376;53.356;-1.748;2023-07-09T00:04:19;99551.19;;;18.09;100.00
69257;BME280;56376;53.356;-1.748;2023-07-09T00:06:45;99563.34;;;18.11;100.00
69257;BME280;56376;53.356;-1.748;2023-07-09T00:09:15;99555.63;;;18.08;100.00
69257;BME280;56376;53.356;-1.748;2023-07-09T00:11:43;99556.59;;;18.07;100.00
69257;BME280;56376;53.356;-1.748;2023-07-09T00:14:10;99559.31;;;18.06;100.00
69257;BME280;56376;53.356;-1.748;2023-07-09T00:16:37;99551.69;;;18.01;100.00
69257;BME280;56376;53.356;-1.748;2023-07-09T00:19:04;99554.44;;;18.00;100.00
69257;BME280;56376;53.356;-1.748;2023-07-09T00:21:30;99560.66;;;17.99;100.00
69257;BME280;56376;53.356;-1.748;2023-07-09T00:24:00;99565.09;;;17.98;100.00
69257;BME280;56376;53.356;-1.748;2023-07-09T00:26:31;99560.78;;;17.97;100.00
69257;BME280;56376;53.356;-1.748;2023-07-09T00:29:02;99556.72;;;17.91;100.00
69257;BME280;56376;53.356;-1.748;2023-07-09T00:31:28;99551.34;;;17.93;100.00
69257;BME280;56376;53.356;-1.748;2023-07-09T00:33:53;99549.97;;;17.87;100.00
69257;BME280;56376;53.356;-1.748;2023-07-09T00:36:29;99553.53;;;17.86;100.00
69257;BME280;56376;53.356;-1.748;2023-07-09T00:38:58;99543.19;;;17.83;100.00
69257;BME280;56376;53.356;-1.748;2023-07-09T00:41:32;99553.00;;;17.81;100.00
69257;BME280;56376;53.356;-1.748;2023-07-09T00:44:33;99555.75;;;17.80;100.00
69257;BME280;56376;53.356;-1.748;2023-07-09T00:49:30;99551.78;;;17.72;100.00
69257;BME280;56376;53.356;-1.748;2023-07-09T00:52:00;99563.31;;;17.71;100.00
69257;BME280;56376;53.356;-1.748;2023-07-09T00:54:40;99553.97;;;17.66;100.00
69257;BME280;56376;53.356;-1.748;2023-07-09T00:57:13;99559.38;;;17.64;100.00
69257;BME280;56376;53.356;-1.748;2023-07-09T00:59:45;99550.78;;;17.61;100.00
69257;BME280;56376;53.356;-1.748;2023-07-09T01:02:12;99554.47;;;17.58;100.00
69257;BME280;56376;53.356;-1.748;2023-07-09T01:04:40;99550.38;;;17.54;100.00
69257;BME280;56376;53.356;-1.748;2023-07-09T01:07:06;99548.66;;;17.53;100.00
69257;BME280;56376;53.356;-1.748;2023-07-09T01:09:32;99547.81;;;17.52;100.00
69257;BME280;56376;53.356;-1.748;2023-07-09T01:12:03;99547.81;;;17.52;100.00
69257;BME280;56376;53.356;-1.748;2023-07-09T01:14:31;99531.88;;;17.54;100.00
69257;BME280;56376;53.356;-1.748;2023-07-09T01:17:00;99542.53;;;17.52;100.00
69257;BME280;56376;53.356;-1.748;2023-07-09T01:19:35;99541.56;;;17.53;100.00
69257;BME280;56376;53.356;-1.748;2023-07-09T01:22:08;99541.78;;;17.50;100.00
69257;BME280;56376;53.356;-1.748;2023-07-09T01:25:06;99536.78;;;17.46;100.00
69257;BME280;56376;53.356;-1.748;2023-07-09T01:27:38;99539.63;;;17.43;100.00
69257;BME280;56376;53.356;-1.748;2023-07-09T01:30:08;99537.19;;;17.40;100.00
69257;BME280;56376;53.356;-1.748;2023-07-09T01:32:34;99528.81;;;17.33;100.00
69257;BME280;56376;53.356;-1.748;2023-07-09T01:35:01;99536.94;;;17.30;100.00
69257;BME280;56376;53.356;-1.748;2023-07-09T01:37:33;99538.06;;;17.26;100.00
69257;BME280;56376;53.356;-1.748;2023-07-09T01:39:59;99536.47;;;17.23;100.00
69257;BME280;56376;53.356;-1.748;2023-07-09T01:42:25;99543.75;;;17.20;100.00
69257;BME280;56376;53.356;-1.748;2023-07-09T01:44:54;99539.41;;;17.19;100.00
69257;BME280;56376;53.356;-1.748;2023-07-09T01:47:21;99542.22;;;17.16;100.00
69257;BME280;56376;53.356;-1.748;2023-07-09T01:49:49;99541.59;;;17.12;100.00
69257;BME280;56376;53.356;-1.748;2023-07-09T01:52:15;99538.19;;;17.10;100.00
69257;BME280;56376;53.356;-1.748;2023-07-09T01:54:44;99537.44;;;17.08;100.00
69257;BME280;56376;53.356;-1.748;2023-07-09T01:59:54;99544.72;;;17.04;100.00
69257;BME280;56376;53.356;-1.748;2023-07-09T02:02:23;99546.69;;;17.01;100.00
69257;BME280;56376;53.356;-1.748;2023-07-09T02:04:52;99557.34;;;16.99;100.00
69257;BME280;56376;53.356;-1.748;2023-07-09T02:07:20;99562.91;;;16.95;100.00
69257;BME280;56376;53.356;-1.748;2023-07-09T02:09:46;99566.50;;;16.94;100.00
69257;BME280;56376;53.356;-1.748;2023-07-09T02:12:13;99559.63;;;16.91;100.00
69257;BME280;56376;53.356;-1.748;2023-07-09T02:14:40;99555.38;;;16.89;100.00
69257;BME280;56376;53.356;-1.748;2023-07-09T02:17:07;99553.78;;;16.86;100.00
69257;BME280;56376;53.356;-1.748;2023-07-09T02:19:33;99553.09;;;16.82;100.00
69257;BME280;56376;53.356;-1.748;2023-07-09T02:21:59;99541.72;;;16.82;100.00
69257;BME280;56376;53.356;-1.748;2023-07-09T02:24:24;99534.75;;;16.81;100.00
69257;BME280;56376;53.356;-1.748;2023-07-09T02:26:52;99543.41;;;16.83;100.00
69257;BME280;56376;53.356;-1.748;2023-07-09T02:29:18;99550.59;;;16.81;100.00
69257;BME280;56376;53.356;-1.748;2023-07-09T02:31:45;99554.25;;;16.78;100.00
69257;BME280;56376;53.356;-1.748;2023-07-09T02:34:10;99560.41;;;16.77;100.00
69257;BME280;56376;53.356;-1.748;2023-07-09T02:36:35;99552.63;;;16.76;100.00
69257;BME280;56376;53.356;-1.748;2023-07-09T02:39:01;99554.38;;;16.75;100.00
69257;BME280;56376;53.356;-1.748;2023-07-09T02:41:26;99558.81;;;16.75;100.00
69257;BME280;56376;53.356;-1.748;2023-07-09T02:43:52;99552.78;;;16.73;100.00
69257;BME280;56376;53.356;-1.748;2023-07-09T02:46:17;99555.53;;;16.71;100.00
69257;BME280;56376;53.356;-1.748;2023-07-09T02:48:42;99554.59;;;16.72;100.00
69257;BME280;56376;53.356;-1.748;2023-07-09T02:51:08;99543.28;;;16.70;100.00
69257;BME280;56376;53.356;-1.748;2023-07-09T02:53:33;99548.66;;;16.69;100.00
69257;BME280;56376;53.356;-1.748;2023-07-09T02:55:58;99545.16;;;16.68;100.00
69257;BME280;56376;53.356;-1.748;2023-07-09T02:58:24;99558.53;;;16.65;100.00
69257;BME280;56376;53.356;-1.748;2023-07-09T03:00:49;99552.41;;;16.64;100.00
69257;BME280;56376;53.356;-1.748;2023-07-09T03:03:19;99561.38;;;16.62;100.00
69257;BME280;56376;53.356;-1.748;2023-07-09T03:05:47;99562.19;;;16.62;100.00
69257;BME280;56376;53.356;-1.748;2023-07-09T03:08:13;99563.16;;;16.61;100.00
69257;BME280;56376;53.356;-1.748;2023-07-09T03:10:40;99563.16;;;16.61;100.00
69257;BME280;56376;53.356;-1.748;2023-07-09T03:13:05;99564.00;;;16.62;100.00
69257;BME280;56376;53.356;-1.748;2023-07-09T03:15:31;99557.78;;;16.63;100.00
69257;BME280;56376;53.356;-1.748;2023-07-09T03:17:56;99545.47;;;16.63;100.00
69257;BME280;56376;53.356;-1.748;2023-07-09T03:20:22;99551.56;;;16.64;100.00
69257;BME280;56376;53.356;-1.748;2023-07-09T03:22:47;99557.88;;;16.61;100.00
69257;BME280;56376;53.356;-1.748;2023-07-09T03:25:13;99553.53;;;16.60;100.00
69257;BME280;56376;53.356;-1.748;2023-07-09T03:27:38;99559.69;;;16.61;100.00
69257;BME280;56376;53.356;-1.748;2023-07-09T03:30:04;99560.72;;;16.58;100.00
69257;BME280;56376;53.356;-1.748;2023-07-09T03:32:30;99563.50;;;16.55;100.00
69257;BME280;56376;53.356;-1.748;2023-07-09T03:34:55;99567.09;;;16.54;100.00
69257;BME280;56376;53.356;-1.748;2023-07-09T03:37:21;99582.91;;;16.54;100.00
69257;BME280;56376;53.356;-1.748;2023-07-09T03:39:46;99578.03;;;16.48;100.00
69257;BME280;56376;53.356;-1.748;2023-07-09T03:42:12;99571.88;;;16.48;100.00
69257;BME280;56376;53.356;-1.748;2023-07-09T03:44:37;99578.19;;;16.45;100.00
69257;BME280;56376;53.356;-1.748;2023-07-09T03:47:03;99576.50;;;16.44;100.00
69257;BME280;56376;53.356;-1.748;2023-07-09T03:49:28;99581.00;;;16.42;100.00
69257;BME280;56376;53.356;-1.748;2023-07-09T03:51:54;99575.94;;;16.39;100.00
69257;BME280;56376;53.356;-1.748;2023-07-09T03:54:19;99585.63;;;16.38;100.00
69257;BME280;56376;53.356;-1.748;2023-07-09T03:56:44;99582.88;;;16.40;100.00
69257;BME280;56376;53.356;-1.748;2023-07-09T03:59:10;99589.09;;;16.39;100.00
69257;BME280;56376;53.356;-1.748;2023-07-09T04:01:36;99588.28;;;16.38;100.00
69257;BME280;56376;53.356;-1.748;2023-07-09T04:04:01;99589.09;;;16.39;100.00
69257;BME280;56376;53.356;-1.748;2023-07-09T04:06:28;99594.38;;;16.39;100.00
69257;BME280;56376;53.356;-1.748;2023-07-09T04:08:53;99595.41;;;16.36;100.00
69257;BME280;56376;53.356;-1.748;2023-07-09T04:11:18;99591.16;;;16.34;100.00
69257;BME280;56376;53.356;-1.748;2023-07-09T04:13:44;99594.00;;;16.31;100.00
69257;BME280;56376;53.356;-1.748;2023-07-09T04:16:10;99598.59;;;16.27;100.00
69257;BME280;56376;53.356;-1.748;2023-07-09T04:18:37;99606.59;;;16.26;100.00
69257;BME280;56376;53.356;-1.748;2023-07-09T04:21:02;99614.66;;;16.22;100.00
69257;BME280;56376;53.356;-1.748;2023-07-09T04:23:29;99624.63;;;16.17;100.00
69257;BME280;56376;53.356;-1.748;2023-07-09T04:25:54;99622.09;;;16.16;100.00
69257;BME280;56376;53.356;-1.748;2023-07-09T04:28:19;99614.44;;;16.11;100.00
69257;BME280;56376;53.356;-1.748;2023-07-09T04:30:51;99612.66;;;16.12;100.00
69257;BME280;56376;53.356;-1.748;2023-07-09T04:33:17;99617.34;;;16.07;100.00
69257;BME280;56376;53.356;-1.748;2023-07-09T04:35:44;99614.72;;;16.07;100.00
69257;BME280;56376;53.356;-1.748;2023-07-09T04:38:10;99614.03;;;16.03;100.00
69257;BME280;56376;53.356;-1.748;2023-07-09T04:40:35;99610.53;;;16.02;100.00
69257;BME280;56376;53.356;-1.748;2023-07-09T04:43:01;99616.75;;;16.01;100.00
69257;BME280;56376;53.356;-1.748;2023-07-09T04:45:26;99615.22;;;15.97;100.00
69257;BME280;56376;53.356;-1.748;2023-07-09T04:47:52;99623.13;;;15.97;100.00
69257;BME280;56376;53.356;-1.748;2023-07-09T04:50:17;99611.94;;;15.94;100.00
69257;BME280;56376;53.356;-1.748;2023-07-09T04:52:43;99618.88;;;15.95;100.00
69257;BME280;56376;53.356;-1.748;2023-07-09T04:55:09;99618.16;;;15.93;100.00
69257;BME280;56376;53.356;-1.748;2023-07-09T04:57:34;99611.28;;;15.90;100.00
69257;BME280;56376;53.356;-1.748;2023-07-09T05:00:00;99614.81;;;15.89;100.00
69257;BME280;56376;53.356;-1.748;2023-07-09T05:02:26;99621.94;;;15.87;100.00
69257;BME280;56376;53.356;-1.748;2023-07-09T05:04:52;99622.91;;;15.86;100.00
69257;BME280;56376;53.356;-1.748;2023-07-09T05:07:17;99622.97;;;15.85;100.00
69257;BME280;56376;53.356;-1.748;2023-07-09T05:09:43;99617.81;;;15.83;100.00
69257;BME280;56376;53.356;-1.748;2023-07-09T05:12:09;99610.16;;;15.78;100.00
69257;BME280;56376;53.356;-1.748;2023-07-09T05:14:35;99612.88;;;15.77;100.00
69257;BME280;56376;53.356;-1.748;2023-07-09T05:17:00;99617.22;;;15.78;100.00
69257;BME280;56376;53.356;-1.748;2023-07-09T05:19:25;99618.00;;;15.80;100.00
69257;BME280;56376;53.356;-1.748;2023-07-09T05:21:51;99618.84;;;15.81;100.00
69257;BME280;56376;53.356;-1.748;2023-07-09T05:24:18;99620.44;;;15.83;100.00
69257;BME280;56376;53.356;-1.748;2023-07-09T05:26:44;99618.72;;;15.82;100.00
69257;BME280;56376;53.356;-1.748;2023-07-09T05:29:09;99626.63;;;15.82;100.00
69257;BME280;56376;53.356;-1.748;2023-07-09T05:31:35;99624.88;;;15.83;100.00
69257;BME280;56376;53.356;-1.748;2023-07-09T05:34:01;99623.91;;;15.84;100.00
69257;BME280;56376;53.356;-1.748;2023-07-09T05:36:27;99622.13;;;15.84;100.00
69257;BME280;56376;53.356;-1.748;2023-07-09T05:38:54;99625.59;;;15.85;100.00
69257;BME280;56376;53.356;-1.748;2023-07-09T05:41:20;99622.25;;;15.83;100.00
69257;BME280;56376;53.356;-1.748;2023-07-09T05:43:45;99630.03;;;15.84;100.00
69257;BME280;56376;53.356;-1.748;2023-07-09T05:46:12;99625.78;;;15.82;100.00
69257;BME280;56376;53.356;-1.748;2023-07-09T05:48:38;99644.03;;;15.85;100.00
69257;BME280;56376;53.356;-1.748;2023-07-09T05:51:03;99643.38;;;15.81;100.00
69257;BME280;56376;53.356;-1.748;2023-07-09T05:53:29;99651.81;;;15.88;100.00
69257;BME280;56376;53.356;-1.748;2023-07-09T05:55:55;99650.94;;;15.87;100.00
69257;BME280;56376;53.356;-1.748;2023-07-09T05:58:21;99640.38;;;15.87;100.00
69257;BME280;56376;53.356;-1.748;2023-07-09T06:00:50;99624.50;;;15.89;100.00
69257;BME280;56376;53.356;-1.748;2023-07-09T06:03:19;99642.94;;;15.89;100.00
69257;BME280;56376;53.356;-1.748;2023-07-09T06:05:45;99632.50;;;15.87;100.00
69257;BME280;56376;53.356;-1.748;2023-07-09T06:08:10;99632.41;;;15.89;100.00
69257;BME280;56376;53.356;-1.748;2023-07-09T06:10:38;99643.78;;;15.89;100.00
69257;BME280;56376;53.356;-1.748;2023-07-09T06:13:03;99651.63;;;15.91;100.00
69257;BME280;56376;53.356;-1.748;2023-07-09T06:15:28;99649.00;;;15.91;100.00
69257;BME280;56376;53.356;-1.748;2023-07-09T06:17:54;99669.03;;;15.93;100.00
69257;BME280;56376;53.356;-1.748;2023-07-09T06:20:19;99647.38;;;15.88;100.00
69257;BME280;56376;53.356;-1.748;2023-07-09T06:22:44;99662.81;;;15.94;100.00
69257;BME280;56376;53.356;-1.748;2023-07-09T06:25:10;99668.00;;;15.96;100.00
69257;BME280;56376;53.356;-1.748;2023-07-09T06:27:36;99672.25;;;15.98;100.00
69257;BME280;56376;53.356;-1.748;2023-07-09T06:30:01;99661.47;;;16.03;100.00
69257;BME280;56376;53.356;-1.748;2023-07-09T06:32:26;99658.72;;;16.05;100.00
69257;BME280;56376;53.356;-1.748;2023-07-09T06:34:52;99648.13;;;16.06;100.00
69257;BME280;56376;53.356;-1.748;2023-07-09T06:37:17;99642.78;;;16.08;100.00
69257;BME280;56376;53.356;-1.748;2023-07-09T06:39:42;99658.41;;;16.11;100.00
69257;BME280;56376;53.356;-1.748;2023-07-09T06:42:08;99662.66;;;16.13;100.00
69257;BME280;56376;53.356;-1.748;2023-07-09T06:44:33;99661.63;;;16.16;100.00
69257;BME280;56376;53.356;-1.748;2023-07-09T06:46:59;99657.13;;;16.18;100.00
69257;BME280;56376;53.356;-1.748;2023-07-09T06:49:24;99665.50;;;16.25;100.00
69257;BME280;56376;53.356;-1.748;2023-07-09T06:51:50;99668.97;;;16.25;100.00
69257;BME280;56376;53.356;-1.748;2023-07-09T06:54:15;99668.91;;;16.27;100.00
69257;BME280;56376;53.356;-1.748;2023-07-09T06:56:41;99668.91;;;16.27;100.00
69257;BME280;56376;53.356;-1.748;2023-07-09T06:59:06;99675.69;;;16.31;100.00
69257;BME280;56376;53.356;-1.748;2023-07-09T07:01:32;99678.16;;;16.34;100.00
69257;BME280;56376;53.356;-1.748;2023-07-09T07:03:57;99684.84;;;16.39;100.00
69257;BME280;56376;53.356;-1.748;2023-07-09T07:06:23;99692.31;;;16.47;100.00
69257;BME280;56376;53.356;-1.748;2023-07-09T07:08:48;99694.16;;;16.61;100.00
69257;BME280;56376;53.356;-1.748;2023-07-09T07:11:14;99694.09;;;16.77;100.00
69257;BME280;56376;53.356;-1.748;2023-07-09T07:13:41;99683.22;;;16.83;100.00
69257;BME280;56376;53.356;-1.748;2023-07-09T07:16:09;99692.00;;;16.83;100.00
69257;BME280;56376;53.356;-1.748;2023-07-09T07:18:35;99697.16;;;16.85;100.00
69257;BME280;56376;53.356;-1.748;2023-07-09T07:21:02;99690.09;;;16.85;100.00
69257;BME280;56376;53.356;-1.748;2023-07-09T07:23:27;99692.56;;;16.89;100.00
69257;BME280;56376;53.356;-1.748;2023-07-09T07:25:53;99695.09;;;16.90;100.00
69257;BME280;56376;53.356;-1.748;2023-07-09T07:28:19;99698.41;;;16.94;100.00
69257;BME280;56376;53.356;-1.748;2023-07-09T07:30:45;99693.97;;;16.94;100.00
69257;BME280;56376;53.356;-1.748;2023-07-09T07:33:13;99686.06;;;16.94;100.00
69257;BME280;56376;53.356;-1.748;2023-07-09T07:35:39;99686.84;;;16.96;100.00
69257;BME280;56376;53.356;-1.748;2023-07-09T07:38:05;99671.16;;;16.93;100.00
69257;BME280;56376;53.356;-1.748;2023-07-09T07:40:31;99670.31;;;16.93;100.00
69257;BME280;56376;53.356;-1.748;2023-07-09T07:42:57;99661.94;;;16.86;100.00
69257;BME280;56376;53.356;-1.748;2023-07-09T07:45:23;99659.19;;;16.87;100.00
69257;BME280;56376;53.356;-1.748;2023-07-09T07:47:48;99659.19;;;16.87;100.00
69257;BME280;56376;53.356;-1.748;2023-07-09T07:50:16;99678.41;;;16.90;100.00
69257;BME280;56376;53.356;-1.748;2023-07-09T07:52:42;99673.06;;;16.91;100.00
69257;BME280;56376;53.356;-1.748;2023-07-09T07:55:08;99688.78;;;16.93;100.00
69257;BME280;56376;53.356;-1.748;2023-07-09T07:57:34;99688.03;;;16.91;100.00
69257;BME280;56376;53.356;-1.748;2023-07-09T08:00:00;99695.00;;;16.92;100.00
69257;BME280;56376;53.356;-1.748;2023-07-09T08:02:25;99716.31;;;16.89;100.00
69257;BME280;56376;53.356;-1.748;2023-07-09T08:04:51;99714.59;;;16.87;100.00
69257;BME280;56376;53.356;-1.748;2023-07-09T08:07:17;99721.47;;;16.90;100.00
69257;BME280;56376;53.356;-1.748;2023-07-09T08:09:44;99717.91;;;16.91;100.00
69257;BME280;56376;53.356;-1.748;2023-07-09T08:12:09;99738.00;;;16.94;100.00
69257;BME280;56376;53.356;-1.748;2023-07-09T08:14:38;99731.75;;;16.95;100.00
69257;BME280;56376;53.356;-1.748;2023-07-09T08:17:04;99750.16;;;16.96;100.00
69257;BME280;56376;53.356;-1.748;2023-07-09T08:19:31;99762.31;;;16.99;100.00
69257;BME280;56376;53.356;-1.748;2023-07-09T08:21:56;99750.88;;;16.98;100.00
69257;BME280;56376;53.356;-1.748;2023-07-09T08:24:22;99750.16;;;16.96;100.00
69257;BME280;56376;53.356;-1.748;2023-07-09T08:26:47;99769.53;;;16.95;100.00
69257;BME280;56376;53.356;-1.748;2023-07-09T08:29:13;99773.13;;;16.94;100.00
69257;BME280;56376;53.356;-1.748;2023-07-09T08:31:38;99761.63;;;16.95;100.00
69257;BME280;56376;53.356;-1.748;2023-07-09T08:34:05;99721.28;;;16.93;100.00
69257;BME280;56376;53.356;-1.748;2023-07-09T08:36:31;99733.19;;;17.00;100.00
69257;BME280;56376;53.356;-1.748;2023-07-09T08:38:56;99742.06;;;16.99;100.00
69257;BME280;56376;53.356;-1.748;2023-07-09T08:41:50;99746.28;;;17.02;100.00
69257;BME280;56376;53.356;-1.748;2023-07-09T08:47:48;99742.72;;;17.03;100.00
69257;BME280;56376;53.356;-1.748;2023-07-09T08:50:19;99741.66;;;17.05;100.00
69257;BME280;56376;53.356;-1.748;2023-07-09T08:52:48;99742.53;;;17.06;100.00
69257;BME280;56376;53.356;-1.748;2023-07-09T08:57:45;99742.72;;;17.03;100.00
69257;BME280;56376;53.356;-1.748;2023-07-09T09:00:15;99734.72;;;17.04;100.00
69257;BME280;56376;53.356;-1.748;2023-07-09T09:02:49;99731.88;;;17.07;100.00
69257;BME280;56376;53.356;-1.748;2023-07-09T09:05:18;99724.81;;;17.08;100.00
69257;BME280;56376;53.356;-1.748;2023-07-09T09:07:44;99728.22;;;17.10;100.00
69257;BME280;56376;53.356;-1.748;2023-07-09T09:10:29;99722.09;;;17.09;100.00
69257;BME280;56376;53.356;-1.748;2023-07-09T09:13:01;99718.41;;;17.12;100.00
69257;BME280;56376;53.356;-1.748;2023-07-09T09:15:30;99716.63;;;17.13;100.00
69257;BME280;56376;53.356;-1.748;2023-07-09T09:18:01;99724.34;;;17.16;100.00
69257;BME280;56376;53.356;-1.748;2023-07-09T09:20:35;99739.91;;;17.20;100.00
69257;BME280;56376;53.356;-1.748;2023-07-09T09:23:13;99727.66;;;17.19;100.00
69257;BME280;56376;53.356;-1.748;2023-07-09T09:25:44;99733.69;;;17.21;100.00
69257;BME280;56376;53.356;-1.748;2023-07-09T09:28:12;99730.09;;;17.22;100.00
69257;BME280;56376;53.356;-1.748;2023-07-09T09:30:39;99732.81;;;17.21;100.00
69257;BME280;56376;53.356;-1.748;2023-07-09T09:33:10;99736.03;;;17.26;100.00
69257;BME280;56376;53.356;-1.748;2023-07-09T09:35:41;99735.13;;;17.27;100.00
69257;BME280;56376;53.356;-1.748;2023-07-09T09:38:15;99728.81;;;17.29;100.00
69257;BME280;56376;53.356;-1.748;2023-07-09T09:40:41;99734.72;;;17.33;100.00
69257;BME280;56376;53.356;-1.748;2023-07-09T09:43:31;99733.81;;;17.34;100.00
69257;BME280;56376;53.356;-1.748;2023-07-09T09:45:58;99731.16;;;17.34;100.00
69257;BME280;56376;53.356;-1.748;2023-07-09T09:48:30;99739.72;;;17.38;100.00
69257;BME280;56376;53.356;-1.748;2023-07-09T09:50:57;99738.81;;;17.39;100.00
69257;BME280;56376;53.356;-1.748;2023-07-09T09:53:28;99732.66;;;17.38;100.00
69257;BME280;56376;53.356;-1.748;2023-07-09T09:55:56;99730.69;;;17.42;100.00
69257;BME280;56376;53.356;-1.748;2023-07-09T09:58:28;99727.09;;;17.43;100.00
69257;BME280;56376;53.356;-1.748;2023-07-09T10:00:55;99736.53;;;17.47;100.00
69257;BME280;56376;53.356;-1.748;2023-07-09T10:03:32;99729.38;;;17.49;100.00
69257;BME280;56376;53.356;-1.748;2023-07-09T10:06:05;99730.03;;;17.52;100.00
69257;BME280;56376;53.356;-1.748;2023-07-09T10:14:25;99722.75;;;17.70;100.00
69257;BME280;56376;53.356;-1.748;2023-07-09T10:16:56;99723.31;;;17.76;100.00
69257;BME280;56376;53.356;-1.748;2023-07-09T10:19:47;99727.50;;;17.80;100.00
69257;BME280;56376;53.356;-1.748;2023-07-09T10:22:22;99728.13;;;17.83;100.00
69257;BME280;56376;53.356;-1.748;2023-07-09T10:28:12;99727.44;;;17.94;100.00
69257;BME280;56376;53.356;-1.748;2023-07-09T10:33:33;99725.81;;;18.06;100.00
69257;BME280;56376;53.356;-1.748;2023-07-09T10:39:07;99727.47;;;18.21;100.00
69257;BME280;56376;53.356;-1.748;2023-07-09T10:41:37;99719.25;;;18.26;100.00
69257;BME280;56376;53.356;-1.748;2023-07-09T10:46:39;99721.47;;;18.32;100.00
69257;BME280;56376;53.356;-1.748;2023-07-09T10:49:10;99720.13;;;18.39;100.00
69257;BME280;56376;53.356;-1.748;2023-07-09T10:51:43;99719.09;;;18.42;100.00
69257;BME280;56376;53.356;-1.748;2023-07-09T10:56:43;99711.41;;;18.51;99.85
69257;BME280;56376;53.356;-1.748;2023-07-09T11:01:48;99712.38;;;18.63;100.00
69257;BME280;56376;53.356;-1.748;2023-07-09T11:04:21;99712.09;;;18.68;100.00
69257;BME280;56376;53.356;-1.748;2023-07-09T11:06:52;99709.22;;;18.71;98.31
69257;BME280;56376;53.356;-1.748;2023-07-09T11:09:34;99714.31;;;18.74;98.53
69257;BME280;56376;53.356;-1.748;2023-07-09T11:12:13;99721.00;;;18.79;98.45
69257;BME280;56376;53.356;-1.748;2023-07-09T11:14:43;99723.47;;;18.83;97.83
69257;BME280;56376;53.356;-1.748;2023-07-09T11:17:14;99712.56;;;18.87;98.81
69257;BME280;56376;53.356;-1.748;2023-07-09T11:19:53;99723.69;;;18.92;98.13
69257;BME280;56376;53.356;-1.748;2023-07-09T11:22:26;99718.28;;;18.94;96.82
69257;BME280;56376;53.356;-1.748;2023-07-09T11:25:12;99720.53;;;19.00;95.35
69257;BME280;56376;53.356;-1.748;2023-07-09T11:28:05;99719.25;;;19.06;95.43
69257;BME280;56376;53.356;-1.748;2023-07-09T11:30:33;99719.13;;;19.07;94.64
69257;BME280;56376;53.356;-1.748;2023-07-09T11:33:27;99716.19;;;19.12;95.99
69257;BME280;56376;53.356;-1.748;2023-07-09T11:36:14;99712.25;;;19.17;98.54
69257;BME280;56376;53.356;-1.748;2023-07-09T11:38:48;99713.84;;;19.20;96.04
69257;BME280;56376;53.356;-1.748;2023-07-09T11:44:31;99707.94;;;19.29;96.97
69257;BME280;56376;53.356;-1.748;2023-07-09T11:47:20;99721.69;;;19.34;95.83
69257;BME280;56376;53.356;-1.748;2023-07-09T11:49:52;99725.00;;;19.38;94.78
69257;BME280;56376;53.356;-1.748;2023-07-09T11:52:45;99717.88;;;19.38;94.47
69257;BME280;56376;53.356;-1.748;2023-07-09T11:55:29;99701.78;;;19.41;93.40
69257;BME280;56376;53.356;-1.748;2023-07-09T11:58:02;99708.13;;;19.39;93.52
69257;BME280;56376;53.356;-1.748;2023-07-09T12:00:36;99720.09;;;19.44;93.87
69257;BME280;56376;53.356;-1.748;2023-07-09T12:03:04;99711.09;;;19.47;92.31
69257;BME280;56376;53.356;-1.748;2023-07-09T12:05:30;99719.03;;;19.47;90.92
69257;BME280;56376;53.356;-1.748;2023-07-09T12:07:56;99710.16;;;19.48;90.71
69257;BME280;56376;53.356;-1.748;2023-07-09T12:10:25;99712.44;;;19.53;91.30
69257;BME280;56376;53.356;-1.748;2023-07-09T12:12:59;99696.13;;;19.59;91.44
69257;BME280;56376;53.356;-1.748;2023-07-09T12:15:27;99697.94;;;19.71;89.46
69257;BME280;56376;53.356;-1.748;2023-07-09T12:17:55;99711.38;;;19.81;89.45
69257;BME280;56376;53.356;-1.748;2023-07-09T12:20:21;99712.53;;;19.89;88.04
69257;BME280;56376;53.356;-1.748;2023-07-09T12:22:46;99702.19;;;19.98;87.72
69257;BME280;56376;53.356;-1.748;2023-07-09T12:25:20;99707.81;;;20.06;88.37
69257;BME280;56376;53.356;-1.748;2023-07-09T12:27:46;99703.88;;;20.12;87.48
69257;BME280;56376;53.356;-1.748;2023-07-09T12:30:12;99696.19;;;20.20;86.65
69257;BME280;56376;53.356;-1.748;2023-07-09T12:32:49;99702.09;;;20.23;84.96
69257;BME280;56376;53.356;-1.748;2023-07-09T12:35:17;99698.28;;;20.27;83.88
69257;BME280;56376;53.356;-1.748;2023-07-09T12:37:44;99690.22;;;20.29;83.91
69257;BME280;56376;53.356;-1.748;2023-07-09T12:40:14;99698.66;;;20.34;84.37
69257;BME280;56376;53.356;-1.748;2023-07-09T12:42:42;99695.22;;;20.45;84.73
69257;BME280;56376;53.356;-1.748;2023-07-09T12:45:18;99693.66;;;20.53;83.50
69257;BME280;56376;53.356;-1.748;2023-07-09T12:47:46;99686.47;;;20.56;84.00
69257;BME280;56376;53.356;-1.748;2023-07-09T12:50:30;99689.28;;;20.65;84.46
69257;BME280;56376;53.356;-1.748;2023-07-09T12:53:00;99684.22;;;20.73;84.15
69257;BME280;56376;53.356;-1.748;2023-07-09T12:55:27;99680.28;;;20.79;85.06
69257;BME280;56376;53.356;-1.748;2023-07-09T12:57:56;99684.28;;;20.85;84.92
69257;BME280;56376;53.356;-1.748;2023-07-09T13:00:25;99683.19;;;20.99;85.03
69257;BME280;56376;53.356;-1.748;2023-07-09T13:02:55;99672.97;;;21.05;82.50
69257;BME280;56376;53.356;-1.748;2023-07-09T13:05:23;99672.59;;;21.10;80.71
69257;BME280;56376;53.356;-1.748;2023-07-09T13:07:59;99666.94;;;21.14;80.24
69257;BME280;56376;53.356;-1.748;2023-07-09T13:10:30;99665.22;;;21.13;79.29
69257;BME280;56376;53.356;-1.748;2023-07-09T13:13:04;99671.53;;;21.12;78.77
69257;BME280;56376;53.356;-1.748;2023-07-09T13:15:40;99652.69;;;21.15;78.76
69257;BME280;56376;53.356;-1.748;2023-07-09T13:18:10;99663.19;;;21.28;78.76
69257;BME280;56376;53.356;-1.748;2023-07-09T13:20:42;99656.84;;;21.42;77.24
69257;BME280;56376;53.356;-1.748;2023-07-09T13:23:16;99660.19;;;21.55;78.29
69257;BME280;56376;53.356;-1.748;2023-07-09T13:25:42;99658.13;;;21.70;77.91
69257;BME280;56376;53.356;-1.748;2023-07-09T13:28:19;99655.44;;;21.81;78.94